createdAt,value
2022-09-23T00:01:26.292Z,30.97
2022-09-23T00:03:54.931Z,25.43
2022-09-23T00:06:23.866Z,29.20
2022-09-23T00:08:52.184Z,28.53
2022-09-23T00:11:21.929Z,27.57
2022-09-23T00:13:52.598Z,26.07
2022-09-23T00:16:21.808Z,26.97
2022-09-23T00:18:50.922Z,26.50
2022-09-23T00:21:19.745Z,26.93
2022-09-23T00:23:48.095Z,26.00
2022-09-23T00:26:17.170Z,25.33
2022-09-23T00:28:45.983Z,27.93
2022-09-23T00:31:17.002Z,26.43
2022-09-23T00:33:45.289Z,26.57
2022-09-23T00:36:16.806Z,28.20
2022-09-23T00:38:45.315Z,23.87
2022-09-23T00:41:15.314Z,26.80
2022-09-23T00:43:44.729Z,27.03
2022-09-23T00:46:15.058Z,25.43
2022-09-23T00:48:44.589Z,26.13
2022-09-23T00:51:14.389Z,23.60
2022-09-23T00:53:42.519Z,24.40
2022-09-23T00:56:10.656Z,27.67
2022-09-23T00:58:39.603Z,22.93
2022-09-23T01:01:07.831Z,24.97
2022-09-23T01:03:36.509Z,26.27
2022-09-23T01:06:06.655Z,24.53
2022-09-23T01:08:34.754Z,26.03
2022-09-23T01:11:08.079Z,31.97
2022-09-23T01:13:39.931Z,24.77
2022-09-23T01:16:10.185Z,26.27
2022-09-23T01:18:43.547Z,23.50
2022-09-23T01:21:24.928Z,25.40
2022-09-23T01:24:19.491Z,22.83
2022-09-23T01:26:57.848Z,21.77
2022-09-23T01:29:37.469Z,22.87
2022-09-23T01:32:08.875Z,23.60
2022-09-23T01:34:39.056Z,23.13
2022-09-23T01:37:09.295Z,22.00
2022-09-23T01:39:38.227Z,21.90
2022-09-23T01:42:07.697Z,22.43
2022-09-23T01:44:38.800Z,26.23
2022-09-23T01:47:11.206Z,22.57
2022-09-23T01:49:43.666Z,24.00
2022-09-23T01:52:16.550Z,28.40
2022-09-23T01:54:47.952Z,23.67
2022-09-23T01:57:18.895Z,23.53
2022-09-23T01:59:48.384Z,22.20
2022-09-23T02:02:19.882Z,24.77
2022-09-23T02:04:49.337Z,23.07
2022-09-23T02:07:20.408Z,22.63
2022-09-23T02:09:54.107Z,24.57
2022-09-23T02:12:22.388Z,23.03
2022-09-23T02:14:51.872Z,27.23
2022-09-23T02:17:24.292Z,23.43
2022-09-23T02:19:54.213Z,21.40
2022-09-23T02:22:25.129Z,26.30
2022-09-23T02:24:54.813Z,22.50
2022-09-23T02:27:26.105Z,22.17
2022-09-23T02:29:56.866Z,21.60
2022-09-23T02:32:29.496Z,25.23
2022-09-23T02:35:00.559Z,20.67
2022-09-23T02:37:32.588Z,21.73
2022-09-23T02:40:03.209Z,21.33
2022-09-23T02:42:35.830Z,24.50
2022-09-23T02:45:04.249Z,24.67
2022-09-23T02:47:33.781Z,27.47
2022-09-23T02:50:02.491Z,30.73
2022-09-23T02:52:30.777Z,27.50
2022-09-23T02:54:59.007Z,28.87
2022-09-23T02:57:27.107Z,33.93
2022-09-23T02:59:55.220Z,27.53
2022-09-23T03:02:37.096Z,30.07
2022-09-23T03:05:08.551Z,27.47
2022-09-23T03:07:41.709Z,29.67
2022-09-23T03:10:12.204Z,27.20
2022-09-23T03:12:41.640Z,32.23
2022-09-23T03:15:22.224Z,27.67
2022-09-23T03:17:56.279Z,26.87
2022-09-23T03:20:27.403Z,29.37
2022-09-23T03:22:57.327Z,26.97
2022-09-23T03:25:25.948Z,26.73
2022-09-23T03:27:57.090Z,28.30
2022-09-23T03:30:26.303Z,26.33
2022-09-23T03:32:56.165Z,23.30
2022-09-23T03:35:24.806Z,23.67
2022-09-23T03:37:55.118Z,25.07
2022-09-23T03:40:25.001Z,24.37
2022-09-23T03:42:53.505Z,26.53
2022-09-23T03:45:32.184Z,26.53
2022-09-23T03:48:01.950Z,23.93
2022-09-23T03:50:30.277Z,22.00
2022-09-23T03:52:59.409Z,23.20
2022-09-23T03:55:27.527Z,24.90
2022-09-23T03:57:55.670Z,22.77
2022-09-23T04:00:24.006Z,25.17
2022-09-23T04:02:52.390Z,23.27
2022-09-23T04:05:22.607Z,23.70
2022-09-23T04:07:51.221Z,25.57
2022-09-23T04:10:19.519Z,22.80
2022-09-23T04:12:47.797Z,24.90
2022-09-23T04:15:16.023Z,24.77
2022-09-23T04:17:44.251Z,28.73
2022-09-23T04:20:12.531Z,26.40
2022-09-23T04:22:42.252Z,25.17
2022-09-23T04:25:10.927Z,32.33
2022-09-23T04:27:39.075Z,37.00
2022-09-23T04:30:08.211Z,36.50
2022-09-23T04:32:36.316Z,28.23
2022-09-23T04:35:04.915Z,32.40
2022-09-23T04:37:34.722Z,33.60
2022-09-23T04:40:06.924Z,34.17
2022-09-23T04:42:35.129Z,29.20
2022-09-23T04:45:04.626Z,29.77
2022-09-23T04:47:33.062Z,28.23
2022-09-23T04:50:01.256Z,40.80
2022-09-23T04:52:29.648Z,26.67
2022-09-23T04:54:57.774Z,29.70
2022-09-23T04:57:27.273Z,31.17
2022-09-23T04:59:57.498Z,31.37
2022-09-23T05:02:26.187Z,27.10
2022-09-23T05:04:54.399Z,29.90
2022-09-23T05:07:22.585Z,29.30
2022-09-23T05:09:50.690Z,31.20
2022-09-23T05:12:19.356Z,34.87
2022-09-23T05:14:49.089Z,29.00
2022-09-23T05:17:17.213Z,30.63
2022-09-23T05:19:45.451Z,31.10
2022-09-23T05:22:13.574Z,36.00
2022-09-23T05:24:41.761Z,34.57
2022-09-23T05:27:10.104Z,34.17
2022-09-23T05:29:39.525Z,31.83
2022-09-23T05:32:09.902Z,33.87
2022-09-23T05:34:38.197Z,34.47
2022-09-23T05:37:06.463Z,28.67
2022-09-23T05:39:34.547Z,29.27
2022-09-23T05:42:02.887Z,29.33
2022-09-23T05:44:31.351Z,29.30
2022-09-23T05:46:59.558Z,25.80
2022-09-23T05:49:48.337Z,28.33
2022-09-23T05:52:17.892Z,30.60
2022-09-23T05:54:46.143Z,28.83
2022-09-23T05:57:14.277Z,28.63
2022-09-23T05:59:43.556Z,28.97
2022-09-23T06:02:11.738Z,30.97
2022-09-23T06:04:41.312Z,33.93
2022-09-23T06:07:09.585Z,27.70
2022-09-23T06:09:37.881Z,26.83
2022-09-23T06:12:06.473Z,36.57
2022-09-23T06:14:34.629Z,28.80
2022-09-23T06:17:02.753Z,29.53
2022-09-23T06:19:30.865Z,27.67
2022-09-23T06:22:00.359Z,30.33
2022-09-23T06:24:31.335Z,27.13
2022-09-23T06:27:01.054Z,32.93
2022-09-23T06:29:30.959Z,31.57
2022-09-23T06:31:59.776Z,30.20
2022-09-23T06:34:27.976Z,32.43
2022-09-23T06:36:56.085Z,27.63
2022-09-23T06:39:25.673Z,32.00
2022-09-23T06:41:54.401Z,33.73
2022-09-23T06:44:22.492Z,33.30
2022-09-23T06:46:51.783Z,30.90
2022-09-23T06:49:21.609Z,36.20
2022-09-23T06:51:49.932Z,34.77
2022-09-23T06:54:18.570Z,37.50
2022-09-23T06:56:48.464Z,35.83
2022-09-23T06:59:17.120Z,33.47
2022-09-23T07:01:47.715Z,34.63
2022-09-23T07:04:16.080Z,34.73
2022-09-23T07:06:44.288Z,34.23
2022-09-23T07:09:12.412Z,42.53
2022-09-23T07:11:40.593Z,34.83
2022-09-23T07:14:10.058Z,39.33
2022-09-23T07:16:38.176Z,35.43
2022-09-23T07:19:06.423Z,42.07
2022-09-23T07:21:34.623Z,42.73
2022-09-23T07:24:02.967Z,35.87
2022-09-23T07:26:34.159Z,33.17
2022-09-23T07:29:05.202Z,31.67
2022-09-23T07:31:39.760Z,32.97
2022-09-23T07:34:08.637Z,38.00
2022-09-23T07:36:37.813Z,40.53
2022-09-23T07:39:05.962Z,42.20
2022-09-23T07:41:34.550Z,41.53
2022-09-23T07:44:03.204Z,41.07
2022-09-23T07:46:32.124Z,42.50
2022-09-23T07:49:02.038Z,40.10
2022-09-23T07:51:35.748Z,39.13
2022-09-23T07:54:05.443Z,41.90
2022-09-23T07:56:33.627Z,37.23
2022-09-23T07:59:03.241Z,38.17
2022-09-23T08:01:32.672Z,38.07
2022-09-23T08:04:04.082Z,40.67
2022-09-23T08:06:32.208Z,37.03
2022-09-23T08:09:00.783Z,37.83
2022-09-23T08:11:29.057Z,34.67
2022-09-23T08:13:57.302Z,37.13
2022-09-23T08:16:25.467Z,36.83
2022-09-23T08:18:53.613Z,34.83
2022-09-23T08:21:23.307Z,30.10
2022-09-23T08:23:51.902Z,29.67
2022-09-23T08:26:22.306Z,31.93
2022-09-23T08:28:50.793Z,30.37
2022-09-23T08:31:19.043Z,27.57
2022-09-23T08:33:47.351Z,25.63
2022-09-23T08:36:15.460Z,26.67
2022-09-23T08:38:44.959Z,26.47
2022-09-23T08:41:16.545Z,28.77
2022-09-23T08:43:47.471Z,28.93
2022-09-23T08:46:15.707Z,26.50
2022-09-23T08:48:44.520Z,24.03
2022-09-23T08:51:14.877Z,19.93
2022-09-23T08:53:45.676Z,19.13
2022-09-23T08:56:15.625Z,20.47
2022-09-23T08:58:48.865Z,21.47
2022-09-23T09:01:22.163Z,20.47
2022-09-23T09:03:52.046Z,22.40
2022-09-23T09:06:21.893Z,21.67
2022-09-23T09:08:58.905Z,23.23
2022-09-23T09:11:31.535Z,17.83
2022-09-23T09:14:02.232Z,19.50
2022-09-23T09:17:01.217Z,19.40
2022-09-23T09:19:47.410Z,18.67
2022-09-23T09:22:17.066Z,19.10
2022-09-23T09:24:46.730Z,21.43
2022-09-23T09:27:14.939Z,21.07
2022-09-23T09:29:44.232Z,18.50
2022-09-23T09:32:21.089Z,21.53
2022-09-23T09:34:54.127Z,22.23
2022-09-23T09:37:24.848Z,20.90
2022-09-23T09:39:54.254Z,20.87
2022-09-23T09:42:25.301Z,23.80
2022-09-23T09:44:55.516Z,20.60
2022-09-23T09:47:29.591Z,22.00
2022-09-23T09:49:59.051Z,22.13
2022-09-23T09:52:28.839Z,20.83
2022-09-23T09:55:17.225Z,17.90
2022-09-23T09:57:46.740Z,16.30
2022-09-23T10:00:20.682Z,16.53
2022-09-23T10:02:50.288Z,15.57
2022-09-23T10:05:27.195Z,14.00
2022-09-23T10:07:55.576Z,26.23
2022-09-23T10:10:32.799Z,13.13
2022-09-23T10:13:02.612Z,13.13
2022-09-23T10:15:33.303Z,12.20
2022-09-23T10:18:02.226Z,14.27
2022-09-23T10:20:38.172Z,16.50
2022-09-23T10:23:09.988Z,13.23
2022-09-23T10:25:39.571Z,15.97
2022-09-23T10:28:34.104Z,13.43
2022-09-23T10:31:06.127Z,17.10
2022-09-23T10:33:34.442Z,14.00
2022-09-23T10:36:02.807Z,15.07
2022-09-23T10:38:31.207Z,11.07
2022-09-23T10:41:18.320Z,10.83
2022-09-23T10:44:11.565Z,13.17
2022-09-23T10:46:42.165Z,10.07
2022-09-23T10:49:29.044Z,6.57
2022-09-23T10:52:04.354Z,6.00
2022-09-23T10:54:35.770Z,8.43
2022-09-23T10:57:27.243Z,8.13
2022-09-23T10:59:58.284Z,9.97
2022-09-23T11:02:40.672Z,10.10
2022-09-23T11:05:20.086Z,8.30
2022-09-23T11:07:51.496Z,5.67
2022-09-23T11:10:55.929Z,4.87
2022-09-23T11:13:34.032Z,5.87
2022-09-23T11:16:06.688Z,4.23
2022-09-23T11:18:52.422Z,4.03
2022-09-23T11:21:32.771Z,4.40
2022-09-23T11:24:43.405Z,5.07
2022-09-23T11:27:15.202Z,4.20
2022-09-23T11:30:11.345Z,4.87
2022-09-23T11:33:16.200Z,3.80
2022-09-23T11:35:47.801Z,5.97
2022-09-23T11:38:19.040Z,4.47
2022-09-23T11:40:48.585Z,6.37
2022-09-23T11:43:19.846Z,4.10
2022-09-23T11:45:51.491Z,3.73
2022-09-23T11:48:21.680Z,5.10
2022-09-23T11:50:51.371Z,4.73
2022-09-23T11:53:21.603Z,4.47
2022-09-23T11:55:58.301Z,3.47
2022-09-23T11:58:28.624Z,4.33
2022-09-23T12:01:01.522Z,4.63
2022-09-23T12:03:43.730Z,3.93
2022-09-23T12:06:15.908Z,3.80
2022-09-23T12:08:44.737Z,5.73
2022-09-23T12:11:21.198Z,5.37
2022-09-23T12:13:50.844Z,4.50
2022-09-23T12:16:44.816Z,4.40
2022-09-23T12:19:20.928Z,5.37
2022-09-23T12:22:01.397Z,6.13
2022-09-23T12:24:47.203Z,8.47
2022-09-23T12:27:23.292Z,5.17
2022-09-23T12:29:53.902Z,6.97
2022-09-23T12:32:24.799Z,5.07
2022-09-23T12:34:52.988Z,4.90
2022-09-23T12:37:29.430Z,4.40
2022-09-23T12:40:00.985Z,3.17
2022-09-23T12:42:31.255Z,4.33
2022-09-23T12:45:34.775Z,3.37
2022-09-23T12:48:05.205Z,3.60
2022-09-23T12:50:53.119Z,4.50
2022-09-23T12:53:58.563Z,7.87
2022-09-23T12:56:53.285Z,3.33
2022-09-23T12:59:28.442Z,4.07
2022-09-23T13:01:56.738Z,5.33
2022-09-23T13:05:02.616Z,3.87
2022-09-23T13:07:34.037Z,5.27
2022-09-23T13:10:08.014Z,3.30
2022-09-23T13:12:38.386Z,2.40
2022-09-23T13:15:12.560Z,3.43
2022-09-23T13:17:41.092Z,3.60
2022-09-23T13:20:34.851Z,4.50
2022-09-23T13:23:23.307Z,2.67
2022-09-23T13:25:52.567Z,2.30
2022-09-23T13:28:40.617Z,2.90
2022-09-23T13:31:15.572Z,3.10
2022-09-23T13:33:44.963Z,3.33
2022-09-23T13:36:16.204Z,3.53
2022-09-23T13:38:46.159Z,4.67
2022-09-23T13:41:16.523Z,3.93
2022-09-23T13:43:46.037Z,3.80
2022-09-23T13:46:17.529Z,5.10
2022-09-23T13:48:46.865Z,3.57
2022-09-23T13:51:24.669Z,2.77
2022-09-23T13:53:53.501Z,3.23
2022-09-23T13:56:22.039Z,2.93
2022-09-23T13:58:50.129Z,2.97
2022-09-23T14:01:23.070Z,3.03
2022-09-23T14:03:52.136Z,2.83
2022-09-23T14:06:21.813Z,5.57
2022-09-23T14:08:51.236Z,4.60
2022-09-23T14:11:20.072Z,4.00
2022-09-23T14:13:48.709Z,6.37
2022-09-23T14:16:17.333Z,4.47
2022-09-23T14:18:46.531Z,5.27
2022-09-23T14:21:35.377Z,4.50
2022-09-23T14:24:17.134Z,5.30
2022-09-23T14:26:47.072Z,6.10
2022-09-23T14:29:16.739Z,4.60
2022-09-23T14:31:56.850Z,3.90
2022-09-23T14:35:06.912Z,5.33
2022-09-23T14:37:58.524Z,6.70
2022-09-23T14:40:27.656Z,5.47
2022-09-23T14:42:59.288Z,3.30
2022-09-23T14:45:28.410Z,6.80
2022-09-23T14:47:59.539Z,6.13
2022-09-23T14:50:39.593Z,6.13
2022-09-23T14:53:40.551Z,4.40
2022-09-23T14:56:16.977Z,5.30
2022-09-23T14:58:52.706Z,4.70
2022-09-23T15:01:29.275Z,6.67
2022-09-23T15:03:57.761Z,5.27
2022-09-23T15:06:26.511Z,5.80
2022-09-23T15:08:56.457Z,5.20
2022-09-23T15:11:25.311Z,7.83
2022-09-23T15:13:53.842Z,6.23
2022-09-23T15:16:26.039Z,9.30
2022-09-23T15:18:55.819Z,6.23
2022-09-23T15:21:25.005Z,3.83
2022-09-23T15:23:55.078Z,4.57
2022-09-23T15:26:25.324Z,5.87
2022-09-23T15:28:55.940Z,3.50
2022-09-23T15:31:26.842Z,6.87
2022-09-23T15:33:56.093Z,5.57
2022-09-23T15:36:25.914Z,5.77
2022-09-23T15:38:54.420Z,3.77
2022-09-23T15:41:24.203Z,4.17
2022-09-23T15:43:52.419Z,6.23
2022-09-23T15:46:22.269Z,4.43
2022-09-23T15:48:58.619Z,5.67
2022-09-23T15:51:27.302Z,5.70
2022-09-23T15:53:56.452Z,3.97
2022-09-23T15:56:27.164Z,4.17
2022-09-23T15:58:55.300Z,6.33
2022-09-23T16:01:25.871Z,5.17
2022-09-23T16:03:54.000Z,6.47
2022-09-23T16:06:22.578Z,3.70
2022-09-23T16:08:52.022Z,3.77
2022-09-23T16:11:21.061Z,4.37
2022-09-23T16:13:51.138Z,3.43
2022-09-23T16:16:21.244Z,3.37
2022-09-23T16:18:52.035Z,5.53
2022-09-23T16:21:22.461Z,4.77
2022-09-23T16:23:51.992Z,5.60
2022-09-23T16:26:21.851Z,3.87
2022-09-23T16:28:52.389Z,3.43
2022-09-23T16:31:20.822Z,3.57
2022-09-23T16:33:50.573Z,5.57
2022-09-23T16:36:22.208Z,5.33
2022-09-23T16:38:50.338Z,4.53
2022-09-23T16:41:18.498Z,3.93
2022-09-23T16:43:47.333Z,5.40
2022-09-23T16:46:17.374Z,7.40
2022-09-23T16:48:51.420Z,6.23
2022-09-23T16:51:21.833Z,6.97
2022-09-23T16:53:50.196Z,7.87
2022-09-23T16:56:25.656Z,7.30
2022-09-23T16:58:56.188Z,5.77
2022-09-23T17:01:44.133Z,5.33
2022-09-23T17:04:12.276Z,5.73
2022-09-23T17:06:44.384Z,7.57
2022-09-23T17:09:12.999Z,7.07
2022-09-23T17:11:41.420Z,10.60
2022-09-23T17:14:10.430Z,12.77
2022-09-23T17:16:40.242Z,9.47
2022-09-23T17:19:08.804Z,8.30
2022-09-23T17:21:37.107Z,7.33
2022-09-23T17:24:05.937Z,14.73
2022-09-23T17:26:34.233Z,11.20
2022-09-23T17:29:02.836Z,11.27
2022-09-23T17:31:31.112Z,9.20
2022-09-23T17:34:00.913Z,10.33
2022-09-23T17:36:29.343Z,10.70
2022-09-23T17:38:57.447Z,13.03
2022-09-23T17:41:25.636Z,14.50
2022-09-23T17:43:58.635Z,10.97
2022-09-23T17:46:29.082Z,10.00
2022-09-23T17:48:57.182Z,15.37
2022-09-23T17:51:27.285Z,12.43
2022-09-23T17:53:55.405Z,14.77
2022-09-23T17:56:25.048Z,15.10
2022-09-23T17:58:53.606Z,14.87
2022-09-23T18:01:23.200Z,14.77
2022-09-23T18:03:54.798Z,16.83
2022-09-23T18:06:23.788Z,13.63
2022-09-23T18:08:53.736Z,16.37
2022-09-23T18:11:22.702Z,16.20
2022-09-23T18:13:51.381Z,15.33
2022-09-23T18:16:19.871Z,16.10
2022-09-23T18:18:51.819Z,15.20
2022-09-23T18:21:20.750Z,19.93
2022-09-23T18:23:49.101Z,21.20
2022-09-23T18:26:20.394Z,24.97
2022-09-23T18:28:48.504Z,23.33
2022-09-23T18:31:18.272Z,24.10
2022-09-23T18:33:50.485Z,27.63
2022-09-23T18:36:18.714Z,20.13
2022-09-23T18:38:47.019Z,18.27
2022-09-23T18:41:15.369Z,21.57
2022-09-23T18:43:48.349Z,19.13
2022-09-23T18:46:17.626Z,18.33
2022-09-23T18:49:03.123Z,21.07
2022-09-23T18:51:32.230Z,18.53
2022-09-23T18:54:01.211Z,19.10
2022-09-23T18:56:33.533Z,16.50
2022-09-23T18:59:03.394Z,19.57
2022-09-23T19:01:31.731Z,23.47
2022-09-23T19:04:02.091Z,17.93
2022-09-23T19:06:30.522Z,17.23
2022-09-23T19:08:58.631Z,18.07
2022-09-23T19:11:26.817Z,19.70
2022-09-23T19:13:55.879Z,17.40
2022-09-23T19:16:25.936Z,17.20
2022-09-23T19:18:54.469Z,21.57
2022-09-23T19:21:23.298Z,23.00
2022-09-23T19:23:52.259Z,18.37
2022-09-23T19:26:21.825Z,19.47
2022-09-23T19:28:50.339Z,22.83
2022-09-23T19:31:23.263Z,19.43
2022-09-23T19:33:57.005Z,21.37
2022-09-23T19:36:29.024Z,18.80
2022-09-23T19:38:58.375Z,17.37
2022-09-23T19:41:28.144Z,20.43
2022-09-23T19:43:57.015Z,18.33
2022-09-23T19:46:25.308Z,18.40
2022-09-23T19:48:53.442Z,21.53
2022-09-23T19:51:23.729Z,20.00
2022-09-23T19:53:51.900Z,22.13
2022-09-23T19:56:20.180Z,19.27
2022-09-23T19:58:48.779Z,20.17
2022-09-23T20:01:17.492Z,18.50
2022-09-23T20:03:45.831Z,20.93
2022-09-23T20:06:14.194Z,19.87
2022-09-23T20:08:43.815Z,19.60
2022-09-23T20:11:12.720Z,19.20
2022-09-23T20:13:41.175Z,21.43
2022-09-23T20:16:11.903Z,19.87
2022-09-23T20:18:40.249Z,19.47
2022-09-23T20:21:09.026Z,21.10
2022-09-23T20:23:37.257Z,16.40
2022-09-23T20:26:24.982Z,23.87
2022-09-23T20:28:53.281Z,27.40
2022-09-23T20:31:22.245Z,31.93
2022-09-23T20:33:51.707Z,32.40
2022-09-23T20:36:20.106Z,25.10
2022-09-23T20:38:48.629Z,22.33
2022-09-23T20:41:18.224Z,24.07
2022-09-23T20:43:47.666Z,23.50
2022-09-23T20:46:17.263Z,25.20
2022-09-23T20:48:47.530Z,27.03
2022-09-23T20:51:15.704Z,19.47
2022-09-23T20:53:44.602Z,23.63
2022-09-23T20:56:13.041Z,19.57
2022-09-23T20:58:42.903Z,20.00
2022-09-23T21:01:12.512Z,21.70
2022-09-23T21:03:41.507Z,21.60
2022-09-23T21:06:10.250Z,22.73
2022-09-23T21:08:39.418Z,21.07
2022-09-23T21:11:09.153Z,18.90
2022-09-23T21:13:37.587Z,23.63
2022-09-23T21:16:09.005Z,22.73
2022-09-23T21:18:37.560Z,21.67
2022-09-23T21:21:06.486Z,21.27
2022-09-23T21:23:35.526Z,21.13
2022-09-23T21:26:04.165Z,21.90
2022-09-23T21:28:33.083Z,22.03
2022-09-23T21:31:01.797Z,24.93
2022-09-23T21:33:31.600Z,22.17
2022-09-23T21:36:04.518Z,22.07
2022-09-23T21:38:32.760Z,24.47
2022-09-23T21:41:00.947Z,21.13
2022-09-23T21:43:32.534Z,26.60
2022-09-23T21:46:02.448Z,20.00
2022-09-23T21:48:32.794Z,19.17
2022-09-23T21:51:01.701Z,21.67
2022-09-23T21:53:31.312Z,20.40
2022-09-23T21:56:03.803Z,21.33
2022-09-23T21:58:32.511Z,18.17
2022-09-23T22:01:01.225Z,17.97
2022-09-23T22:03:29.509Z,18.43
2022-09-23T22:06:09.706Z,17.50
2022-09-23T22:08:39.010Z,17.00
2022-09-23T22:11:08.093Z,16.70
2022-09-23T22:13:36.233Z,17.30
2022-09-23T22:16:06.178Z,16.67
2022-09-23T22:18:34.460Z,16.10
2022-09-23T22:21:02.574Z,15.13
2022-09-23T22:23:32.051Z,14.70
2022-09-23T22:26:03.202Z,21.37
2022-09-23T22:28:50.669Z,16.90
2022-09-23T22:31:37.091Z,17.13
2022-09-23T22:34:05.451Z,17.57
2022-09-23T22:36:34.109Z,19.37
2022-09-23T22:39:05.137Z,18.30
2022-09-23T22:41:35.585Z,17.23
2022-09-23T22:44:04.270Z,18.67
2022-09-23T22:46:35.537Z,19.27
2022-09-23T22:49:04.601Z,19.87
2022-09-23T22:51:32.932Z,19.63
2022-09-23T22:54:01.055Z,22.97
2022-09-23T22:56:30.617Z,25.67
2022-09-23T22:59:01.793Z,24.67
2022-09-23T23:01:31.197Z,25.77
2022-09-23T23:04:01.305Z,26.53
2022-09-23T23:06:36.557Z,25.23
2022-09-23T23:09:06.823Z,25.63
2022-09-23T23:11:36.528Z,28.10
2022-09-23T23:14:04.926Z,25.83
2022-09-23T23:16:35.115Z,26.47
2022-09-23T23:19:04.188Z,27.20
2022-09-23T23:21:32.331Z,24.73
2022-09-23T23:24:00.586Z,29.40
2022-09-23T23:26:29.790Z,23.63
2022-09-23T23:28:59.271Z,26.20
2022-09-23T23:31:28.641Z,28.37
2022-09-23T23:33:56.932Z,29.40
2022-09-23T23:36:25.204Z,28.27
2022-09-23T23:38:53.294Z,29.23
2022-09-23T23:41:22.741Z,32.10
2022-09-23T23:43:56.081Z,32.47
2022-09-23T23:46:26.640Z,32.10
2022-09-23T23:48:55.120Z,31.23
2022-09-23T23:51:23.475Z,34.63
2022-09-23T23:53:53.282Z,34.87
2022-09-23T23:56:22.399Z,33.57
2022-09-23T23:58:54.856Z,32.60
